Time;durP1;ratioP1;P1;durP2;ratioP2;P2;SDS_P1;SDS_P2;PMS_P1;PMS_P2;Temp;Humidity;BMP_temperature;BMP_pressure;BME280_temperature;BME280_humidity;BME280_pressure;Samples;Min_cycle;Max_cycle;Signal;HPM_P1;HPM_P2
2021/12/07 00:02:22;;;;;;;16.85;15.35;;;;;;;;;;4990847;28;20142;-72
2021/12/07 00:04:48;;;;;;;17.25;15.63;;;;;;;;;;4989100;28;20117;-72
2021/12/07 00:07:14;;;;;;;16.15;14.55;;;;;;;;;;4976809;28;20406;-72
2021/12/07 00:09:44;;;;;;;16.77;15.30;;;;;;;;;;4994483;28;20060;-72
2021/12/07 00:12:09;;;;;;;;;;;;;;;;;;4998299;28;20449;-71
2021/12/07 00:14:41;;;;;;;16.70;15.07;;;;;;;;;;4995078;28;19914;-71
2021/12/07 00:17:07;;;;;;;16.20;14.60;;;;;;;;;;4994306;28;20655;-72
2021/12/07 00:19:33;;;;;;;15.18;13.93;;;;;;;;;;4991234;28;20104;-72
2021/12/07 00:22:00;;;;;;;16.25;14.73;;;;;;;;;;4993001;28;20485;-71
2021/12/07 00:24:25;;;;;;;17.33;15.73;;;;;;;;;;4990439;28;20374;-71
2021/12/07 00:26:51;;;;;;;16.83;15.10;;;;;;;;;;4982796;28;20042;-72
2021/12/07 00:29:18;;;;;;;16.48;14.85;;;;;;;;;;4980866;28;20034;-71
2021/12/07 00:31:55;;;;;;;15.82;14.23;;;;;;;;;;4974898;28;20031;-72
2021/12/07 00:36:52;;;;;;;18.10;16.25;;;;;;;;;;4986942;28;20030;-71
2021/12/07 00:39:21;;;;;;;18.50;16.33;;;;;;;;;;4980683;28;20058;-71
2021/12/07 00:41:49;;;;;;;17.75;16.05;;;;;;;;;;4991427;28;20042;-72
2021/12/07 00:44:17;;;;;;;17.63;16.05;;;;;;;;;;4977807;28;20042;-71
2021/12/07 00:46:43;;;;;;;18.20;16.35;;;;;;;;;;4980733;28;20050;-72
2021/12/07 00:49:09;;;;;;;17.73;16.02;;;;;;;;;;4971595;28;20367;-72
2021/12/07 00:51:35;;;;;;;17.23;15.57;;;;;;;;;;4955023;28;20544;-71
2021/12/07 00:54:02;;;;;;;16.63;14.88;;;;;;;;;;4942032;28;20394;-72
2021/12/07 00:56:28;;;;;;;16.65;15.25;;;;;;;;;;4994687;28;20481;-72
2021/12/07 00:58:54;;;;;;;17.00;15.48;;;;;;;;;;4956371;28;20042;-71
2021/12/07 01:01:21;;;;;;;16.58;15.10;;;;;;;;;;4968254;28;20526;-71
2021/12/07 01:03:48;;;;;;;18.27;16.25;;;;;;;;;;4966275;28;20141;-71
2021/12/07 01:25:16;;;;;;;17.20;15.43;;;;;;;;;;4971409;28;20486;-71
2021/12/07 01:27:45;;;;;;;16.00;14.57;;;;;;;;;;4964545;28;20046;-71
2021/12/07 01:30:32;;;;;;;14.85;13.60;;;;;;;;;;4988502;28;20060;-71
2021/12/07 01:41:16;;;;;;;14.77;13.68;;;;;;;;;;4972191;28;20513;-72
2021/12/07 01:51:31;;;;;;;15.23;13.63;;;;;;;;;;5002101;23;20125;-71
2021/12/07 01:59:33;;;;;;;14.57;13.52;;;;;;;;;;4996831;28;20039;-70
2021/12/07 02:01:59;;;;;;;14.57;13.40;;;;;;;;;;4981966;28;20587;-71
2021/12/07 02:04:25;;;;;;;14.75;13.65;;;;;;;;;;4999642;28;20037;-71
2021/12/07 02:06:51;;;;;;;14.27;13.07;;;;;;;;;;4989080;28;20053;-71
2021/12/07 02:09:17;;;;;;;13.48;12.32;;;;;;;;;;4985818;28;20039;-70
2021/12/07 02:11:49;;;;;;;13.93;12.93;;;;;;;;;;4983974;28;20088;-71
2021/12/07 02:14:17;;;;;;;14.85;13.55;;;;;;;;;;4991743;28;20038;-71
2021/12/07 02:16:52;;;;;;;14.95;13.85;;;;;;;;;;4988737;28;20042;-71
2021/12/07 02:19:20;;;;;;;13.85;12.48;;;;;;;;;;4987524;28;20103;-71
2021/12/07 02:21:46;;;;;;;14.98;13.77;;;;;;;;;;4996178;28;20084;-71
2021/12/07 02:24:19;;;;;;;15.35;14.15;;;;;;;;;;4995147;28;20088;-71
2021/12/07 02:26:47;;;;;;;15.43;14.23;;;;;;;;;;4982278;28;20054;-71
2021/12/07 02:29:13;;;;;;;15.05;13.93;;;;;;;;;;5004965;28;20056;-71
2021/12/07 02:31:40;;;;;;;15.07;13.68;;;;;;;;;;5013938;28;20049;-71
2021/12/07 02:34:06;;;;;;;15.48;14.20;;;;;;;;;;4987841;28;20401;-71
2021/12/07 02:36:32;;;;;;;15.65;14.45;;;;;;;;;;4989904;28;20046;-71
2021/12/07 02:38:58;;;;;;;15.20;14.00;;;;;;;;;;4988905;28;20118;-71
2021/12/07 02:41:25;;;;;;;13.85;12.85;;;;;;;;;;4990416;28;20034;-71
2021/12/07 02:43:51;;;;;;;14.77;13.65;;;;;;;;;;4991173;28;20462;-71
2021/12/07 02:46:17;;;;;;;15.07;13.80;;;;;;;;;;4987508;28;20035;-71
2021/12/07 02:48:43;;;;;;;14.73;13.38;;;;;;;;;;4984381;28;20498;-71
2021/12/07 02:51:10;;;;;;;14.50;13.40;;;;;;;;;;4990113;28;20030;-71
2021/12/07 02:53:37;;;;;;;14.48;13.27;;;;;;;;;;4989454;28;20485;-71
2021/12/07 02:56:06;;;;;;;15.60;14.40;;;;;;;;;;4986594;28;20497;-71
2021/12/07 02:58:40;;;;;;;14.73;13.43;;;;;;;;;;4997491;28;20034;-71
2021/12/07 03:01:21;;;;;;;13.73;12.73;;;;;;;;;;4988680;28;20089;-71
2021/12/07 03:04:34;;;;;;;15.07;13.77;;;;;;;;;;4988212;28;20444;-71
2021/12/07 03:07:07;;;;;;;15.55;14.38;;;;;;;;;;4988518;28;20045;-71
2021/12/07 03:26:11;;;;;;;15.13;13.75;;;;;;;;;;4989395;28;20033;-71
2021/12/07 03:28:44;;;;;;;14.25;13.05;;;;;;;;;;4987711;28;20065;-71
2021/12/07 03:31:14;;;;;;;13.85;12.68;;;;;;;;;;4986257;28;20070;-71
2021/12/07 03:33:43;;;;;;;14.25;12.85;;;;;;;;;;4989626;28;20112;-71
2021/12/07 03:36:10;;;;;;;13.07;12.07;;;;;;;;;;4999142;28;20068;-71
2021/12/07 03:38:36;;;;;;;14.05;12.95;;;;;;;;;;4988862;28;20113;-71
2021/12/07 03:41:04;;;;;;;13.45;12.38;;;;;;;;;;4987217;28;20149;-71
2021/12/07 03:43:29;;;;;;;13.65;12.55;;;;;;;;;;5010591;28;20046;-71
2021/12/07 03:45:55;;;;;;;13.55;12.45;;;;;;;;;;4992392;28;20519;-71
2021/12/07 03:48:23;;;;;;;12.77;11.77;;;;;;;;;;4987096;28;20038;-72
2021/12/07 03:50:49;;;;;;;13.68;12.57;;;;;;;;;;4981038;28;20198;-71
2021/12/07 03:53:15;;;;;;;13.68;12.48;;;;;;;;;;4976499;28;20481;-72
2021/12/07 03:55:42;;;;;;;13.18;12.07;;;;;;;;;;4970839;28;20548;-71
2021/12/07 03:58:08;;;;;;;12.10;11.20;;;;;;;;;;4971460;28;20038;-71
2021/12/07 04:00:39;;;;;;;12.18;11.27;;;;;;;;;;4976302;28;20109;-71
2021/12/07 04:03:09;;;;;;;12.82;11.93;;;;;;;;;;4976391;28;20042;-71
2021/12/07 04:05:44;;;;;;;12.48;11.27;;;;;;;;;;4985944;28;20042;-71
2021/12/07 04:08:14;;;;;;;11.75;10.85;;;;;;;;;;4967268;28;20035;-72
2021/12/07 04:10:40;;;;;;;12.90;11.90;;;;;;;;;;4974241;28;20038;-71
2021/12/07 04:13:06;;;;;;;12.02;11.05;;;;;;;;;;4992920;28;20035;-71
2021/12/07 04:15:32;;;;;;;11.02;10.27;;;;;;;;;;4970547;28;20072;-71
2021/12/07 04:17:58;;;;;;;11.23;10.43;;;;;;;;;;4969860;28;20038;-70
2021/12/07 04:20:23;;;;;;;12.52;11.38;;;;;;;;;;4998900;28;20168;-71
2021/12/07 04:22:49;;;;;;;12.95;11.80;;;;;;;;;;4980476;28;20421;-72
2021/12/07 04:25:16;;;;;;;12.80;11.63;;;;;;;;;;4990035;28;20045;-71
2021/12/07 04:27:43;;;;;;;11.93;11.02;;;;;;;;;;4997464;28;20963;-71
2021/12/07 04:30:16;;;;;;;12.10;11.20;;;;;;;;;;5002458;28;20050;-71
2021/12/07 04:32:43;;;;;;;11.98;11.07;;;;;;;;;;4990132;28;20093;-71
2021/12/07 04:35:10;;;;;;;12.73;11.63;;;;;;;;;;4995614;28;20489;-71
2021/12/07 04:37:38;;;;;;;12.63;11.73;;;;;;;;;;4998965;28;20058;-71
2021/12/07 04:40:06;;;;;;;11.48;10.68;;;;;;;;;;4991411;28;20508;-71
2021/12/07 04:42:31;;;;;;;11.65;10.65;;;;;;;;;;4991793;28;20113;-71
2021/12/07 04:45:01;;;;;;;11.20;10.30;;;;;;;;;;4997838;28;20117;-71
2021/12/07 04:58:27;;;;;;;11.35;10.55;;;;;;;;;;4962729;28;20058;-71
2021/12/07 05:00:53;;;;;;;10.90;10.20;;;;;;;;;;4990126;28;20067;-72
2021/12/07 05:03:18;;;;;;;11.02;10.23;;;;;;;;;;4998998;28;20394;-71
2021/12/07 05:05:49;;;;;;;11.27;10.48;;;;;;;;;;4990956;28;20072;-71
2021/12/07 05:08:20;;;;;;;11.18;10.32;;;;;;;;;;4988831;28;20117;-71
2021/12/07 05:23:58;;;;;;;10.30;9.40;;;;;;;;;;4991734;28;20093;-72
2021/12/07 05:40:07;;;;;;;10.45;9.55;;;;;;;;;;4991419;28;20542;-71
2021/12/07 05:42:35;;;;;;;10.90;10.10;;;;;;;;;;5007397;28;20041;-71
2021/12/07 05:45:01;;;;;;;10.70;9.85;;;;;;;;;;4990345;28;20030;-71
2021/12/07 05:47:26;;;;;;;10.45;9.55;;;;;;;;;;4990285;28;20509;-71
2021/12/07 05:49:52;;;;;;;10.00;9.20;;;;;;;;;;4992357;28;20030;-71
2021/12/07 05:52:18;;;;;;;9.05;8.55;;;;;;;;;;4989943;28;20038;-70
2021/12/07 05:54:43;;;;;;;9.15;8.55;;;;;;;;;;4989273;28;20046;-71
2021/12/07 05:57:09;;;;;;;10.63;9.43;;;;;;;;;;4995359;28;20463;-71
2021/12/07 05:59:35;;;;;;;11.05;10.13;;;;;;;;;;4996762;28;20146;-71
2021/12/07 06:02:00;;;;;;;10.45;9.50;;;;;;;;;;4985153;28;20069;-71
2021/12/07 06:04:28;;;;;;;10.45;9.68;;;;;;;;;;4986721;28;20204;-71
2021/12/07 06:06:54;;;;;;;11.65;10.45;;;;;;;;;;5002943;28;20030;-71
2021/12/07 06:09:19;;;;;;;16.88;11.48;;;;;;;;;;4989820;28;20088;-71
2021/12/07 06:11:47;;;;;;;13.45;11.20;;;;;;;;;;4989535;28;20062;-71
2021/12/07 06:14:18;;;;;;;10.10;9.13;;;;;;;;;;4994608;28;20429;-71
2021/12/07 06:16:43;;;;;;;10.15;9.45;;;;;;;;;;4993669;28;20057;-71
2021/12/07 06:19:09;;;;;;;12.05;9.50;;;;;;;;;;4990020;28;20038;-71
2021/12/07 06:21:35;;;;;;;10.85;9.85;;;;;;;;;;4985745;28;20445;-71
2021/12/07 06:24:00;;;;;;;9.73;8.93;;;;;;;;;;5000772;28;20049;-71
2021/12/07 06:26:26;;;;;;;9.70;9.00;;;;;;;;;;4989150;28;20541;-71
2021/12/07 06:28:51;;;;;;;9.88;9.18;;;;;;;;;;4988216;28;20128;-71
2021/12/07 06:31:17;;;;;;;10.30;9.27;;;;;;;;;;4997724;28;20039;-72
2021/12/07 06:33:43;;;;;;;9.63;8.80;;;;;;;;;;4999698;28;20516;-71
2021/12/07 06:36:09;;;;;;;9.90;9.20;;;;;;;;;;4989191;28;20050;-71
2021/12/07 06:38:35;;;;;;;12.07;10.98;;;;;;;;;;4996089;28;20042;-71
2021/12/07 06:41:04;;;;;;;10.98;10.07;;;;;;;;;;4999573;28;20030;-71
2021/12/07 06:43:30;;;;;;;11.80;10.70;;;;;;;;;;4989450;28;20046;-71
2021/12/07 06:45:56;;;;;;;10.25;9.55;;;;;;;;;;4988868;28;20038;-72
2021/12/07 06:48:21;;;;;;;9.85;9.25;;;;;;;;;;4979352;28;20065;-71
2021/12/07 06:50:48;;;;;;;10.05;9.15;;;;;;;;;;4999977;28;20493;-71
2021/12/07 06:53:14;;;;;;;9.18;8.27;;;;;;;;;;4985091;28;20038;-72
2021/12/07 06:55:39;;;;;;;10.10;9.02;;;;;;;;;;4991756;28;20089;-72
2021/12/07 06:58:05;;;;;;;9.45;8.60;;;;;;;;;;4988132;28;20042;-72
2021/12/07 07:00:32;;;;;;;9.32;8.40;;;;;;;;;;4985683;28;20041;-73
2021/12/07 07:02:58;;;;;;;9.35;8.57;;;;;;;;;;4993286;28;20596;-72
2021/12/07 07:05:23;;;;;;;10.30;9.45;;;;;;;;;;4994260;28;20640;-72
2021/12/07 07:07:50;;;;;;;9.32;8.55;;;;;;;;;;4988402;28;20559;-72
2021/12/07 07:10:18;;;;;;;10.68;9.77;;;;;;;;;;4986789;28;20038;-72
2021/12/07 07:12:45;;;;;;;9.88;9.07;;;;;;;;;;4996514;28;20124;-72
2021/12/07 07:15:13;;;;;;;9.32;8.43;;;;;;;;;;4991726;28;20030;-72
2021/12/07 07:17:39;;;;;;;12.80;9.25;;;;;;;;;;4994644;28;20619;-72
2021/12/07 07:20:07;;;;;;;10.32;9.43;;;;;;;;;;4988412;28;20121;-72
2021/12/07 07:22:33;;;;;;;10.00;9.03;;;;;;;;;;4988762;28;20065;-72
2021/12/07 07:24:58;;;;;;;10.10;8.60;;;;;;;;;;4987569;28;20532;-72
2021/12/07 07:27:24;;;;;;;9.45;8.68;;;;;;;;;;4997703;28;20030;-73
2021/12/07 07:29:50;;;;;;;9.38;8.50;;;;;;;;;;4992680;28;20057;-72
2021/12/07 07:32:15;;;;;;;9.18;8.48;;;;;;;;;;4969992;28;20117;-72
2021/12/07 07:34:41;;;;;;;9.35;8.55;;;;;;;;;;4989296;28;20037;-73
2021/12/07 07:37:07;;;;;;;18.88;11.38;;;;;;;;;;5002640;28;20039;-73
2021/12/07 07:39:32;;;;;;;164.77;68.15;;;;;;;;;;4988406;28;20823;-73
2021/12/07 07:41:58;;;;;;;11.80;10.60;;;;;;;;;;4987992;28;20037;-73
2021/12/07 07:44:37;;;;;;;11.20;8.60;;;;;;;;;;4993597;28;20038;-73
2021/12/07 07:47:03;;;;;;;8.95;8.35;;;;;;;;;;4992242;28;20121;-72
2021/12/07 07:49:29;;;;;;;9.43;8.52;;;;;;;;;;4987979;28;20069;-72
2021/12/07 07:51:55;;;;;;;9.88;8.93;;;;;;;;;;4984353;23;20466;-71
2021/12/07 07:54:20;;;;;;;9.75;8.90;;;;;;;;;;4969625;28;20041;-71
2021/12/07 07:56:46;;;;;;;10.13;9.32;;;;;;;;;;4960637;28;20114;-71
2021/12/07 07:59:12;;;;;;;9.68;8.80;;;;;;;;;;4951226;28;20042;-70
2021/12/07 08:01:37;;;;;;;11.13;10.13;;;;;;;;;;4941078;29;20043;-70
2021/12/07 08:04:04;;;;;;;10.20;9.25;;;;;;;;;;4950496;28;20224;-70
2021/12/07 08:06:30;;;;;;;10.27;9.27;;;;;;;;;;4957355;28;20043;-70
2021/12/07 08:08:57;;;;;;;11.82;9.43;;;;;;;;;;4954768;28;20069;-70
2021/12/07 08:11:23;;;;;;;10.75;9.38;;;;;;;;;;4946592;29;20122;-70
2021/12/07 08:13:49;;;;;;;10.50;9.60;;;;;;;;;;4970163;28;20035;-70
2021/12/07 08:16:15;;;;;;;10.00;9.00;;;;;;;;;;4966961;28;20257;-70
2021/12/07 08:18:46;;;;;;;9.10;8.50;;;;;;;;;;4952776;29;20046;-69
2021/12/07 08:21:12;;;;;;;9.90;8.98;;;;;;;;;;4961562;28;20430;-70
2021/12/07 08:23:38;;;;;;;9.75;9.05;;;;;;;;;;4971943;28;20093;-70
2021/12/07 08:26:06;;;;;;;10.23;9.43;;;;;;;;;;4969241;28;20150;-70
2021/12/07 08:28:32;;;;;;;10.25;9.25;;;;;;;;;;4951580;29;20518;-69
2021/12/07 08:30:58;;;;;;;9.45;8.75;;;;;;;;;;4934514;29;20042;-69
2021/12/07 08:33:24;;;;;;;10.75;9.50;;;;;;;;;;4961328;28;20481;-69
2021/12/07 08:35:50;;;;;;;11.32;10.13;;;;;;;;;;4934886;29;20047;-69
2021/12/07 08:38:16;;;;;;;10.48;9.55;;;;;;;;;;4947674;29;20150;-69
2021/12/07 08:40:42;;;;;;;10.43;9.02;;;;;;;;;;4959356;28;20070;-69
2021/12/07 08:43:11;;;;;;;10.23;9.40;;;;;;;;;;4923484;29;21911;-69
2021/12/07 08:45:39;;;;;;;10.60;9.57;;;;;;;;;;4949552;28;20055;-69
2021/12/07 08:48:06;;;;;;;11.70;10.55;;;;;;;;;;4955007;28;20055;-69
2021/12/07 08:50:32;;;;;;;11.38;10.57;;;;;;;;;;4932516;29;20047;-69
2021/12/07 08:53:03;;;;;;;10.77;9.88;;;;;;;;;;4949024;29;20042;-69
2021/12/07 09:01:01;;;;;;;10.38;9.57;;;;;;;;;;4932341;29;20035;-70
2021/12/07 09:03:27;;;;;;;10.30;9.30;;;;;;;;;;4955863;28;20047;-71
2021/12/07 09:05:53;;;;;;;10.77;9.77;;;;;;;;;;4950637;28;20089;-69
2021/12/07 09:08:19;;;;;;;10.27;9.48;;;;;;;;;;4951639;28;20565;-70
2021/12/07 09:10:45;;;;;;;10.45;9.65;;;;;;;;;;4962544;28;20027;-70
2021/12/07 09:13:11;;;;;;;11.45;10.55;;;;;;;;;;4949333;28;20073;-70
2021/12/07 09:15:38;;;;;;;10.15;9.13;;;;;;;;;;4929531;28;20054;-68
2021/12/07 09:18:03;;;;;;;10.50;9.80;;;;;;;;;;4944213;29;20046;-69
2021/12/07 09:20:30;;;;;;;10.50;9.57;;;;;;;;;;4933334;29;20130;-69
2021/12/07 09:22:58;;;;;;;12.18;9.80;;;;;;;;;;4949634;28;20043;-69
2021/12/07 09:25:24;;;;;;;10.90;9.80;;;;;;;;;;4956706;28;20094;-69
2021/12/07 09:27:50;;;;;;;10.48;9.32;;;;;;;;;;4940110;29;20039;-69
2021/12/07 09:30:18;;;;;;;10.40;9.55;;;;;;;;;;4950838;29;20524;-69
2021/12/07 09:32:45;;;;;;;10.85;9.43;;;;;;;;;;4949654;28;20197;-69
2021/12/07 09:35:13;;;;;;;10.20;9.30;;;;;;;;;;4956147;28;20086;-70
2021/12/07 09:37:39;;;;;;;10.05;9.10;;;;;;;;;;4949813;29;20118;-69
2021/12/07 09:40:09;;;;;;;11.80;9.90;;;;;;;;;;4949188;28;20063;-69
2021/12/07 09:42:35;;;;;;;10.05;8.93;;;;;;;;;;4950480;29;20063;-69
2021/12/07 09:45:02;;;;;;;10.80;9.73;;;;;;;;;;4950797;29;20077;-71
2021/12/07 09:47:27;;;;;;;12.68;10.40;;;;;;;;;;4932836;29;20454;-70
2021/12/07 09:49:53;;;;;;;11.13;10.10;;;;;;;;;;4948541;28;20474;-70
2021/12/07 09:52:19;;;;;;;11.20;10.13;;;;;;;;;;4950418;29;20047;-69
2021/12/07 09:54:44;;;;;;;10.35;9.48;;;;;;;;;;4950754;29;20165;-70
2021/12/07 09:57:11;;;;;;;9.85;9.13;;;;;;;;;;4950649;29;20086;-71
2021/12/07 09:59:38;;;;;;;11.32;10.25;;;;;;;;;;4940252;29;20031;-70
2021/12/07 10:02:06;;;;;;;10.05;9.15;;;;;;;;;;4947724;29;20595;-70
2021/12/07 10:04:32;;;;;;;12.82;11.65;;;;;;;;;;4931412;29;20046;-69
2021/12/07 10:06:58;;;;;;;11.60;10.52;;;;;;;;;;4950998;28;20482;-69
2021/12/07 10:09:24;;;;;;;15.57;11.32;;;;;;;;;;4953403;28;20045;-70
2021/12/07 10:11:53;;;;;;;12.02;11.00;;;;;;;;;;4932771;29;20404;-70
2021/12/07 10:14:20;;;;;;;12.73;11.27;;;;;;;;;;4950103;29;20043;-69
2021/12/07 10:16:48;;;;;;;11.63;10.73;;;;;;;;;;4948339;29;20053;-69
2021/12/07 10:19:31;;;;;;;13.35;11.00;;;;;;;;;;4941462;29;20370;-70
2021/12/07 10:22:11;;;;;;;11.57;10.38;;;;;;;;;;4948787;28;20486;-69
2021/12/07 10:24:50;;;;;;;11.38;10.27;;;;;;;;;;4941026;29;20039;-69
2021/12/07 10:27:35;;;;;;;11.85;10.70;;;;;;;;;;4950143;28;20255;-69
2021/12/07 10:30:04;;;;;;;10.80;9.95;;;;;;;;;;4935575;29;20098;-70
2021/12/07 10:32:30;;;;;;;;;;;;;;;;;;4944624;28;20513;-71
2021/12/07 10:34:55;;;;;;;12.02;11.05;;;;;;;;;;4966110;28;20013;-70
2021/12/07 10:37:21;;;;;;;14.05;11.77;;;;;;;;;;4954069;28;20118;-69
2021/12/07 10:39:51;;;;;;;11.93;11.02;;;;;;;;;;4949345;29;20031;-69
2021/12/07 10:42:25;;;;;;;11.02;10.18;;;;;;;;;;4946652;28;20053;-69
2021/12/07 10:44:52;;;;;;;13.02;10.65;;;;;;;;;;4932622;28;20058;-69
2021/12/07 10:47:21;;;;;;;11.75;10.52;;;;;;;;;;4933220;28;20035;-69
2021/12/07 10:50:00;;;;;;;11.02;10.10;;;;;;;;;;4954558;28;20042;-69
2021/12/07 10:52:29;;;;;;;;;;;;;;;;;;4950397;29;20054;-69
2021/12/07 10:55:16;;;;;;;12.23;10.90;;;;;;;;;;4920278;28;20377;-69
2021/12/07 10:57:55;;;;;;;12.13;10.88;;;;;;;;;;4936434;29;20030;-70
2021/12/07 11:00:33;;;;;;;12.10;11.13;;;;;;;;;;4948931;28;20042;-70
2021/12/07 11:03:11;;;;;;;12.85;11.45;;;;;;;;;;4942585;29;20043;-70
2021/12/07 11:05:38;;;;;;;14.35;12.70;;;;;;;;;;4960364;28;20034;-70
2021/12/07 11:08:06;;;;;;;11.88;10.82;;;;;;;;;;4916456;29;20039;-70
2021/12/07 11:10:34;;;;;;;11.48;10.35;;;;;;;;;;4947292;29;20039;-69
2021/12/07 11:13:17;;;;;;;12.55;11.30;;;;;;;;;;4944167;29;20667;-70
2021/12/07 11:15:56;;;;;;;10.52;9.48;;;;;;;;;;4934397;28;20036;-70
2021/12/07 11:18:50;;;;;;;11.23;10.38;;;;;;;;;;4954871;28;20039;-70
2021/12/07 11:21:19;;;;;;;12.85;9.82;;;;;;;;;;4938985;29;20043;-67
2021/12/07 11:23:45;;;;;;;15.00;10.20;;;;;;;;;;4951831;29;20086;-69
2021/12/07 11:31:51;;;;;;;11.88;10.60;;;;;;;;;;4922516;28;20504;-70
2021/12/07 11:34:18;;;;;;;;;;;;;;;;;;4948415;28;20091;-69
2021/12/07 11:36:49;;;;;;;11.57;9.70;;;;;;;;;;4942639;28;19922;-70
2021/12/07 11:39:21;;;;;;;12.10;10.90;;;;;;;;;;4948124;29;20027;-69
2021/12/07 11:41:51;;;;;;;11.77;10.00;;;;;;;;;;4938112;28;20055;-69
2021/12/07 11:44:18;;;;;;;11.48;10.40;;;;;;;;;;4947421;29;20035;-69
2021/12/07 11:46:49;;;;;;;11.90;10.02;;;;;;;;;;4950681;28;20449;-70
2021/12/07 11:49:24;;;;;;;10.73;9.80;;;;;;;;;;4955038;28;20058;-70
2021/12/07 11:51:58;;;;;;;12.00;9.80;;;;;;;;;;4930707;29;20493;-69
2021/12/07 11:54:31;;;;;;;12.50;10.38;;;;;;;;;;4943749;28;20035;-69
2021/12/07 11:56:57;;;;;;;11.45;10.00;;;;;;;;;;4933072;29;20042;-69
2021/12/07 11:59:23;;;;;;;11.15;10.05;;;;;;;;;;4949973;28;20059;-69
2021/12/07 12:01:50;;;;;;;10.90;9.88;;;;;;;;;;4944719;29;20032;-69
2021/12/07 12:04:19;;;;;;;11.25;10.02;;;;;;;;;;4947143;29;20023;-70
2021/12/07 12:06:55;;;;;;;11.70;10.52;;;;;;;;;;4950156;29;20049;-69
2021/12/07 12:09:23;;;;;;;10.32;9.60;;;;;;;;;;4948316;29;20393;-69
2021/12/07 12:11:58;;;;;;;10.90;9.90;;;;;;;;;;4946673;28;20478;-69
2021/12/07 12:14:39;;;;;;;11.20;10.10;;;;;;;;;;4943645;28;20063;-69
2021/12/07 12:17:08;;;;;;;10.82;9.75;;;;;;;;;;4922453;29;20043;-70
2021/12/07 12:19:57;;;;;;;12.45;10.48;;;;;;;;;;4915488;29;20740;-69
2021/12/07 12:22:33;;;;;;;14.63;11.43;;;;;;;;;;4952331;28;20043;-69
2021/12/07 12:25:03;;;;;;;11.00;10.10;;;;;;;;;;4936270;29;20042;-70
2021/12/07 12:27:33;;;;;;;11.85;10.73;;;;;;;;;;4954680;28;20039;-69
2021/12/07 12:30:23;;;;;;;11.32;10.27;;;;;;;;;;4947477;28;20061;-70
2021/12/07 12:32:54;;;;;;;11.60;10.32;;;;;;;;;;4918477;29;20066;-70
2021/12/07 12:35:42;;;;;;;13.82;10.35;;;;;;;;;;4943678;28;20402;-70
2021/12/07 12:38:34;;;;;;;11.20;10.20;;;;;;;;;;4948987;28;20098;-70
2021/12/07 12:41:12;;;;;;;10.88;10.05;;;;;;;;;;4945648;28;20054;-70
2021/12/07 12:43:41;;;;;;;10.70;9.90;;;;;;;;;;4937042;28;20110;-70
2021/12/07 12:46:10;;;;;;;11.18;10.05;;;;;;;;;;4951788;28;20039;-70
2021/12/07 12:48:36;;;;;;;10.77;9.77;;;;;;;;;;4951920;29;20039;-70
2021/12/07 12:51:05;;;;;;;11.23;10.13;;;;;;;;;;4951322;28;20031;-70
2021/12/07 12:53:34;;;;;;;14.15;10.00;;;;;;;;;;4956496;28;20058;-70
2021/12/07 12:56:17;;;;;;;11.05;10.07;;;;;;;;;;4958245;28;20114;-70
2021/12/07 12:58:48;;;;;;;10.52;9.63;;;;;;;;;;4950362;29;20164;-70
2021/12/07 13:01:23;;;;;;;12.88;10.10;;;;;;;;;;4951866;29;20356;-70
2021/12/07 13:04:08;;;;;;;12.05;9.95;;;;;;;;;;4949274;29;20134;-70
2021/12/07 13:06:34;;;;;;;10.25;9.38;;;;;;;;;;4940799;29;20058;-70
2021/12/07 13:09:03;;;;;;;10.65;9.85;;;;;;;;;;4914476;29;20079;-70
2021/12/07 13:11:32;;;;;;;;;;;;;;;;;;4953841;28;20483;-69
2021/12/07 13:13:57;;;;;;;9.65;9.05;;;;;;;;;;4948421;29;19937;-70
2021/12/07 13:16:23;;;;;;;11.23;10.13;;;;;;;;;;4945756;28;20039;-70
2021/12/07 13:18:59;;;;;;;10.63;9.80;;;;;;;;;;4950568;28;20173;-70
2021/12/07 13:21:27;;;;;;;11.57;10.65;;;;;;;;;;4933271;28;20039;-70
2021/12/07 13:24:00;;;;;;;10.25;9.27;;;;;;;;;;4941924;28;20035;-70
2021/12/07 13:26:39;;;;;;;12.93;10.25;;;;;;;;;;4952915;29;20520;-69
2021/12/07 13:29:11;;;;;;;10.52;9.45;;;;;;;;;;4954435;29;20042;-69
2021/12/07 13:31:57;;;;;;;11.10;9.77;;;;;;;;;;4948843;29;20027;-69
2021/12/07 13:34:30;;;;;;;10.23;9.32;;;;;;;;;;4966944;28;20055;-69
2021/12/07 13:37:02;;;;;;;10.63;9.75;;;;;;;;;;4935042;29;20035;-69
2021/12/07 13:39:41;;;;;;;11.18;10.00;;;;;;;;;;4951311;29;20062;-68
2021/12/07 13:42:16;;;;;;;10.70;9.80;;;;;;;;;;4945906;28;20110;-69
2021/12/07 13:44:41;;;;;;;11.13;10.00;;;;;;;;;;4951101;29;20463;-69
2021/12/07 13:47:18;;;;;;;12.00;10.60;;;;;;;;;;4954848;29;20135;-69
2021/12/07 13:49:50;;;;;;;10.85;10.10;;;;;;;;;;4954214;28;20039;-69
2021/12/07 13:52:22;;;;;;;12.13;10.40;;;;;;;;;;4977049;23;20042;-69
2021/12/07 13:54:52;;;;;;;11.48;10.57;;;;;;;;;;4977891;28;20386;-70
2021/12/07 13:57:19;;;;;;;;;;;;;;;;;;4970637;28;20086;-70
2021/12/07 14:00:14;;;;;;;10.98;10.18;;;;;;;;;;4974390;28;19929;-70
2021/12/07 14:02:43;;;;;;;10.77;10.00;;;;;;;;;;4968242;28;20049;-70
2021/12/07 14:05:18;;;;;;;11.15;10.30;;;;;;;;;;4962707;28;20031;-70
2021/12/07 14:07:46;;;;;;;11.60;10.40;;;;;;;;;;4965426;28;20489;-71
2021/12/07 14:10:13;;;;;;;10.90;9.98;;;;;;;;;;4963752;28;20045;-70
2021/12/07 14:12:39;;;;;;;10.30;9.27;;;;;;;;;;4963708;28;20031;-70
2021/12/07 14:15:10;;;;;;;11.15;10.18;;;;;;;;;;4971186;28;20057;-72
2021/12/07 14:17:38;;;;;;;10.85;9.85;;;;;;;;;;4967801;28;20125;-71
2021/12/07 14:20:04;;;;;;;10.65;9.85;;;;;;;;;;4950593;28;20046;-71
2021/12/07 14:22:30;;;;;;;10.93;9.90;;;;;;;;;;4968453;28;20047;-70
2021/12/07 14:24:55;;;;;;;11.13;10.10;;;;;;;;;;4973188;28;20035;-71
2021/12/07 14:27:21;;;;;;;10.70;9.77;;;;;;;;;;4951083;28;20082;-71
2021/12/07 14:29:47;;;;;;;9.57;8.68;;;;;;;;;;4957645;28;20047;-72
2021/12/07 14:32:12;;;;;;;8.30;7.70;;;;;;;;;;4974256;28;20696;-71
2021/12/07 14:34:42;;;;;;;8.80;8.00;;;;;;;;;;4960246;28;20043;-71
2021/12/07 14:37:08;;;;;;;8.88;8.18;;;;;;;;;;4963041;28;20166;-71
2021/12/07 14:39:43;;;;;;;9.40;8.60;;;;;;;;;;4961710;28;20041;-70
2021/12/07 14:42:13;;;;;;;10.32;8.48;;;;;;;;;;4967339;28;20042;-72
2021/12/07 14:44:42;;;;;;;9.02;8.13;;;;;;;;;;4964112;28;20047;-70
2021/12/07 14:47:09;;;;;;;9.60;7.97;;;;;;;;;;4965666;28;20261;-70
2021/12/07 14:49:39;;;;;;;8.95;8.15;;;;;;;;;;4967048;28;20038;-70
2021/12/07 14:52:13;;;;;;;8.75;7.95;;;;;;;;;;4976116;28;20635;-70
2021/12/07 14:54:39;;;;;;;9.13;8.30;;;;;;;;;;4962306;28;20510;-70
2021/12/07 14:57:05;;;;;;;8.48;7.90;;;;;;;;;;4957186;28;20146;-70
2021/12/07 14:59:35;;;;;;;8.50;7.80;;;;;;;;;;4964037;28;20093;-70
2021/12/07 15:02:01;;;;;;;11.00;8.73;;;;;;;;;;4958459;28;20533;-70
2021/12/07 15:04:27;;;;;;;8.82;8.10;;;;;;;;;;4951174;28;20026;-71
2021/12/07 15:07:10;;;;;;;9.15;8.55;;;;;;;;;;4972264;28;20586;-71
2021/12/07 15:09:38;;;;;;;9.18;8.45;;;;;;;;;;4949891;28;20101;-70
2021/12/07 15:12:07;;;;;;;29.55;15.32;;;;;;;;;;4963076;28;20129;-70
2021/12/07 15:14:33;;;;;;;24.45;16.10;;;;;;;;;;4964405;28;20343;-70
2021/12/07 15:17:07;;;;;;;40.67;20.33;;;;;;;;;;4975771;28;20035;-70
2021/12/07 15:19:35;;;;;;;137.85;56.75;;;;;;;;;;4962734;28;20078;-71
2021/12/07 15:22:02;;;;;;;23.70;15.68;;;;;;;;;;4965245;28;20035;-70
2021/12/07 15:24:33;;;;;;;18.58;14.48;;;;;;;;;;4965458;28;20043;-70
2021/12/07 15:26:59;;;;;;;10.98;9.77;;;;;;;;;;4959966;28;20039;-70
2021/12/07 15:29:27;;;;;;;62.63;29.45;;;;;;;;;;4962484;28;20510;-70
2021/12/07 15:32:02;;;;;;;74.10;29.77;;;;;;;;;;4961968;28;20085;-70
2021/12/07 15:34:31;;;;;;;41.60;23.08;;;;;;;;;;4960741;28;20039;-71
2021/12/07 15:36:59;;;;;;;51.60;26.33;;;;;;;;;;4965507;28;20417;-70
2021/12/07 15:39:30;;;;;;;27.45;18.55;;;;;;;;;;4968895;28;20366;-70
2021/12/07 15:41:58;;;;;;;18.77;13.63;;;;;;;;;;4966456;28;20509;-71
2021/12/07 15:44:34;;;;;;;9.77;8.73;;;;;;;;;;4962987;28;20043;-70
2021/12/07 15:47:04;;;;;;;9.35;8.40;;;;;;;;;;4956415;28;20042;-70
2021/12/07 15:49:37;;;;;;;10.95;9.95;;;;;;;;;;4956011;28;20561;-70
2021/12/07 15:52:14;;;;;;;21.98;13.90;;;;;;;;;;4971625;28;20035;-70
2021/12/07 15:54:51;;;;;;;13.93;12.50;;;;;;;;;;4954307;28;20038;-70
2021/12/07 15:57:17;;;;;;;15.55;12.85;;;;;;;;;;4965372;28;20031;-70
2021/12/07 16:00:04;;;;;;;13.93;10.30;;;;;;;;;;4961080;28;20035;-70
2021/12/07 16:02:38;;;;;;;18.92;12.40;;;;;;;;;;4977426;28;20031;-70
2021/12/07 16:05:07;;;;;;;20.00;14.07;;;;;;;;;;4959330;28;20126;-70
2021/12/07 16:07:33;;;;;;;25.33;13.60;;;;;;;;;;4966455;28;20035;-71
2021/12/07 16:10:06;;;;;;;12.77;11.65;;;;;;;;;;4963478;28;20692;-70
2021/12/07 16:12:32;;;;;;;18.00;14.00;;;;;;;;;;4972294;28;20042;-70
2021/12/07 16:15:13;;;;;;;19.25;14.02;;;;;;;;;;4960828;28;20057;-70
2021/12/07 16:17:40;;;;;;;12.60;10.13;;;;;;;;;;4966430;28;20077;-70
2021/12/07 16:20:08;;;;;;;12.05;9.48;;;;;;;;;;4978090;28;20039;-69
2021/12/07 16:22:36;;;;;;;10.70;9.73;;;;;;;;;;4963097;28;20077;-69
2021/12/07 16:25:07;;;;;;;11.30;10.40;;;;;;;;;;4958493;28;20179;-70
2021/12/07 16:27:33;;;;;;;16.67;13.13;;;;;;;;;;4961826;28;20043;-69